sensor_id;sensor_type;location;lat;lon;timestamp;temperature;humidity
3466;DHT22;1747;48.884;9.160;2023-07-20T00:01:30;21.90;78.90
3466;DHT22;1747;48.884;9.160;2023-07-20T00:03:58;21.90;78.70
3466;DHT22;1747;48.884;9.160;2023-07-20T00:06:25;21.90;78.90
3466;DHT22;1747;48.884;9.160;2023-07-20T00:08:53;21.90;79.00
3466;DHT22;1747;48.884;9.160;2023-07-20T00:11:20;21.80;79.00
3466;DHT22;1747;48.884;9.160;2023-07-20T00:13:47;21.80;79.20
3466;DHT22;1747;48.884;9.160;2023-07-20T00:16:14;21.70;79.30
3466;DHT22;1747;48.884;9.160;2023-07-20T00:18:40;21.60;79.50
3466;DHT22;1747;48.884;9.160;2023-07-20T00:21:09;21.50;80.00
3466;DHT22;1747;48.884;9.160;2023-07-20T00:23:35;21.40;80.10
3466;DHT22;1747;48.884;9.160;2023-07-20T00:26:02;21.30;80.20
3466;DHT22;1747;48.884;9.160;2023-07-20T00:28:29;21.30;80.40
3466;DHT22;1747;48.884;9.160;2023-07-20T00:30:56;21.30;80.90
3466;DHT22;1747;48.884;9.160;2023-07-20T00:33:22;21.30;80.90
3466;DHT22;1747;48.884;9.160;2023-07-20T00:35:49;21.20;81.20
3466;DHT22;1747;48.884;9.160;2023-07-20T00:38:17;21.20;81.20
3466;DHT22;1747;48.884;9.160;2023-07-20T00:40:44;21.10;81.30
3466;DHT22;1747;48.884;9.160;2023-07-20T00:43:11;21.10;81.40
3466;DHT22;1747;48.884;9.160;2023-07-20T00:45:38;21.00;81.40
3466;DHT22;1747;48.884;9.160;2023-07-20T00:48:06;21.00;81.50
3466;DHT22;1747;48.884;9.160;2023-07-20T00:50:34;21.00;81.60
3466;DHT22;1747;48.884;9.160;2023-07-20T00:53:03;21.00;81.50
3466;DHT22;1747;48.884;9.160;2023-07-20T00:55:33;20.90;81.70
3466;DHT22;1747;48.884;9.160;2023-07-20T00:58:00;20.80;81.80
3466;DHT22;1747;48.884;9.160;2023-07-20T01:00:27;20.80;81.90
3466;DHT22;1747;48.884;9.160;2023-07-20T01:02:54;20.70;82.00
3466;DHT22;1747;48.884;9.160;2023-07-20T01:05:22;20.60;82.30
3466;DHT22;1747;48.884;9.160;2023-07-20T01:07:55;20.60;82.60
3466;DHT22;1747;48.884;9.160;2023-07-20T01:10:29;20.50;83.00
3466;DHT22;1747;48.884;9.160;2023-07-20T01:13:00;20.40;83.30
3466;DHT22;1747;48.884;9.160;2023-07-20T01:15:28;20.40;83.10
3466;DHT22;1747;48.884;9.160;2023-07-20T01:17:54;20.40;83.10
3466;DHT22;1747;48.884;9.160;2023-07-20T01:20:22;20.40;83.10
3466;DHT22;1747;48.884;9.160;2023-07-20T01:26:17;20.30;83.50
3466;DHT22;1747;48.884;9.160;2023-07-20T01:31:55;20.10;84.70
3466;DHT22;1747;48.884;9.160;2023-07-20T01:34:24;20.00;84.70
3466;DHT22;1747;48.884;9.160;2023-07-20T01:36:54;19.90;85.20
3466;DHT22;1747;48.884;9.160;2023-07-20T01:39:21;19.90;85.10
3466;DHT22;1747;48.884;9.160;2023-07-20T01:41:48;19.90;85.10
3466;DHT22;1747;48.884;9.160;2023-07-20T01:44:15;19.90;85.20
3466;DHT22;1747;48.884;9.160;2023-07-20T01:46:42;19.90;85.30
3466;DHT22;1747;48.884;9.160;2023-07-20T01:49:10;19.90;85.30
3466;DHT22;1747;48.884;9.160;2023-07-20T01:51:37;19.80;85.50
3466;DHT22;1747;48.884;9.160;2023-07-20T01:54:04;19.70;85.70
3466;DHT22;1747;48.884;9.160;2023-07-20T01:56:32;19.70;86.00
3466;DHT22;1747;48.884;9.160;2023-07-20T01:58:59;19.60;86.40
3466;DHT22;1747;48.884;9.160;2023-07-20T02:01:26;19.60;86.70
3466;DHT22;1747;48.884;9.160;2023-07-20T02:03:54;19.50;87.30
3466;DHT22;1747;48.884;9.160;2023-07-20T02:06:22;19.50;87.60
3466;DHT22;1747;48.884;9.160;2023-07-20T02:08:49;19.40;87.80
3466;DHT22;1747;48.884;9.160;2023-07-20T02:11:16;19.40;88.20
3466;DHT22;1747;48.884;9.160;2023-07-20T02:13:43;19.40;88.30
3466;DHT22;1747;48.884;9.160;2023-07-20T02:16:09;19.30;88.20
3466;DHT22;1747;48.884;9.160;2023-07-20T02:18:36;19.40;87.60
3466;DHT22;1747;48.884;9.160;2023-07-20T02:21:03;19.50;87.40
3466;DHT22;1747;48.884;9.160;2023-07-20T02:23:31;19.40;86.70
3466;DHT22;1747;48.884;9.160;2023-07-20T02:25:58;19.30;87.20
3466;DHT22;1747;48.884;9.160;2023-07-20T02:28:25;19.30;87.60
3466;DHT22;1747;48.884;9.160;2023-07-20T02:30:52;19.20;87.50
3466;DHT22;1747;48.884;9.160;2023-07-20T02:33:19;19.10;87.30
3466;DHT22;1747;48.884;9.160;2023-07-20T02:35:47;19.10;88.00
3466;DHT22;1747;48.884;9.160;2023-07-20T02:38:14;19.00;88.90
3466;DHT22;1747;48.884;9.160;2023-07-20T02:40:42;19.00;89.20
3466;DHT22;1747;48.884;9.160;2023-07-20T02:43:09;18.90;90.10
3466;DHT22;1747;48.884;9.160;2023-07-20T02:45:39;18.90;89.10
3466;DHT22;1747;48.884;9.160;2023-07-20T02:48:06;18.90;89.80
3466;DHT22;1747;48.884;9.160;2023-07-20T02:50:33;18.80;90.10
3466;DHT22;1747;48.884;9.160;2023-07-20T02:53:01;18.80;90.30
3466;DHT22;1747;48.884;9.160;2023-07-20T02:55:28;18.80;90.10
3466;DHT22;1747;48.884;9.160;2023-07-20T02:57:56;18.70;90.10
3466;DHT22;1747;48.884;9.160;2023-07-20T03:00:22;18.70;90.50
3466;DHT22;1747;48.884;9.160;2023-07-20T03:02:50;18.60;90.90
3466;DHT22;1747;48.884;9.160;2023-07-20T03:05:18;18.60;91.20
3466;DHT22;1747;48.884;9.160;2023-07-20T03:07:46;18.50;91.40
3466;DHT22;1747;48.884;9.160;2023-07-20T03:10:13;18.40;91.60
3466;DHT22;1747;48.884;9.160;2023-07-20T03:12:40;18.30;91.80
3466;DHT22;1747;48.884;9.160;2023-07-20T03:15:09;18.30;92.00
3466;DHT22;1747;48.884;9.160;2023-07-20T03:17:36;18.20;92.20
3466;DHT22;1747;48.884;9.160;2023-07-20T03:20:03;18.10;92.30
3466;DHT22;1747;48.884;9.160;2023-07-20T03:22:34;18.10;92.40
3466;DHT22;1747;48.884;9.160;2023-07-20T03:25:01;18.10;92.60
3466;DHT22;1747;48.884;9.160;2023-07-20T03:27:28;18.10;92.60
3466;DHT22;1747;48.884;9.160;2023-07-20T03:29:55;18.10;92.90
3466;DHT22;1747;48.884;9.160;2023-07-20T03:32:23;18.20;93.20
3466;DHT22;1747;48.884;9.160;2023-07-20T03:34:50;18.20;93.30
3466;DHT22;1747;48.884;9.160;2023-07-20T03:37:17;18.20;93.10
3466;DHT22;1747;48.884;9.160;2023-07-20T03:39:43;18.20;92.70
3466;DHT22;1747;48.884;9.160;2023-07-20T03:42:10;18.20;92.90
3466;DHT22;1747;48.884;9.160;2023-07-20T03:44:37;18.20;93.10
3466;DHT22;1747;48.884;9.160;2023-07-20T03:47:04;18.20;93.70
3466;DHT22;1747;48.884;9.160;2023-07-20T03:49:33;18.20;93.80
3466;DHT22;1747;48.884;9.160;2023-07-20T03:52:00;18.10;93.90
3466;DHT22;1747;48.884;9.160;2023-07-20T03:54:30;18.20;94.00
3466;DHT22;1747;48.884;9.160;2023-07-20T03:56:57;18.10;94.10
3466;DHT22;1747;48.884;9.160;2023-07-20T03:59:24;18.00;94.20
3466;DHT22;1747;48.884;9.160;2023-07-20T04:01:51;17.90;94.70
3466;DHT22;1747;48.884;9.160;2023-07-20T04:04:18;17.60;95.10
3466;DHT22;1747;48.884;9.160;2023-07-20T04:06:47;17.40;95.50
3466;DHT22;1747;48.884;9.160;2023-07-20T04:09:14;17.20;95.90
3466;DHT22;1747;48.884;9.160;2023-07-20T04:11:40;17.20;96.10
3466;DHT22;1747;48.884;9.160;2023-07-20T04:14:07;17.20;96.50
3466;DHT22;1747;48.884;9.160;2023-07-20T04:16:34;17.30;96.70
3466;DHT22;1747;48.884;9.160;2023-07-20T04:19:01;17.30;96.90
3466;DHT22;1747;48.884;9.160;2023-07-20T04:21:27;17.40;97.60
3466;DHT22;1747;48.884;9.160;2023-07-20T04:23:56;17.40;98.20
3466;DHT22;1747;48.884;9.160;2023-07-20T04:26:22;17.30;98.40
3466;DHT22;1747;48.884;9.160;2023-07-20T04:28:49;17.30;99.30
3466;DHT22;1747;48.884;9.160;2023-07-20T04:31:18;17.40;99.80
3466;DHT22;1747;48.884;9.160;2023-07-20T04:33:45;17.50;99.80
3466;DHT22;1747;48.884;9.160;2023-07-20T04:36:11;17.50;99.90
3466;DHT22;1747;48.884;9.160;2023-07-20T04:38:40;17.60;99.90
3466;DHT22;1747;48.884;9.160;2023-07-20T04:41:09;17.70;99.90
3466;DHT22;1747;48.884;9.160;2023-07-20T04:43:41;17.80;99.80
3466;DHT22;1747;48.884;9.160;2023-07-20T04:46:08;17.80;99.90
3466;DHT22;1747;48.884;9.160;2023-07-20T04:48:36;17.90;99.90
3466;DHT22;1747;48.884;9.160;2023-07-20T04:51:03;18.00;99.90
3466;DHT22;1747;48.884;9.160;2023-07-20T04:53:30;18.10;99.90
3466;DHT22;1747;48.884;9.160;2023-07-20T04:55:57;18.20;99.80
3466;DHT22;1747;48.884;9.160;2023-07-20T04:58:25;18.20;99.50
3466;DHT22;1747;48.884;9.160;2023-07-20T05:00:52;18.30;99.90
3466;DHT22;1747;48.884;9.160;2023-07-20T05:03:22;18.40;99.40
3466;DHT22;1747;48.884;9.160;2023-07-20T05:05:49;18.50;99.40
3466;DHT22;1747;48.884;9.160;2023-07-20T05:08:17;18.60;99.00
3466;DHT22;1747;48.884;9.160;2023-07-20T05:10:43;18.60;98.90
3466;DHT22;1747;48.884;9.160;2023-07-20T05:13:10;18.70;99.50
3466;DHT22;1747;48.884;9.160;2023-07-20T05:15:38;18.70;99.70
3466;DHT22;1747;48.884;9.160;2023-07-20T05:18:05;18.80;99.10
3466;DHT22;1747;48.884;9.160;2023-07-20T05:20:34;18.90;99.00
3466;DHT22;1747;48.884;9.160;2023-07-20T05:23:02;18.90;99.70
3466;DHT22;1747;48.884;9.160;2023-07-20T05:25:29;19.00;99.30
3466;DHT22;1747;48.884;9.160;2023-07-20T05:27:56;19.00;99.40
3466;DHT22;1747;48.884;9.160;2023-07-20T05:30:23;19.10;99.30
3466;DHT22;1747;48.884;9.160;2023-07-20T05:32:51;19.10;99.40
3466;DHT22;1747;48.884;9.160;2023-07-20T05:35:20;19.20;99.70
3466;DHT22;1747;48.884;9.160;2023-07-20T05:37:47;19.20;99.80
3466;DHT22;1747;48.884;9.160;2023-07-20T05:40:15;19.30;99.90
3466;DHT22;1747;48.884;9.160;2023-07-20T05:42:44;19.40;98.70
3466;DHT22;1747;48.884;9.160;2023-07-20T05:45:11;19.50;98.50
3466;DHT22;1747;48.884;9.160;2023-07-20T05:47:38;19.70;99.50
3466;DHT22;1747;48.884;9.160;2023-07-20T05:50:06;19.80;99.40
3466;DHT22;1747;48.884;9.160;2023-07-20T05:52:33;19.90;99.10
3466;DHT22;1747;48.884;9.160;2023-07-20T05:55:00;20.00;98.60
3466;DHT22;1747;48.884;9.160;2023-07-20T05:57:27;20.00;99.00
3466;DHT22;1747;48.884;9.160;2023-07-20T05:59:54;20.00;98.60
3466;DHT22;1747;48.884;9.160;2023-07-20T06:02:21;20.20;98.40
3466;DHT22;1747;48.884;9.160;2023-07-20T06:04:48;20.30;98.70
3466;DHT22;1747;48.884;9.160;2023-07-20T06:07:16;20.30;98.20
3466;DHT22;1747;48.884;9.160;2023-07-20T06:09:43;20.40;97.90
3466;DHT22;1747;48.884;9.160;2023-07-20T06:12:10;20.50;97.80
3466;DHT22;1747;48.884;9.160;2023-07-20T06:14:37;20.40;97.90
3466;DHT22;1747;48.884;9.160;2023-07-20T06:17:04;20.50;97.90
3466;DHT22;1747;48.884;9.160;2023-07-20T06:19:31;20.60;97.40
3466;DHT22;1747;48.884;9.160;2023-07-20T06:21:58;20.60;97.60
3466;DHT22;1747;48.884;9.160;2023-07-20T06:24:26;20.70;97.80
3466;DHT22;1747;48.884;9.160;2023-07-20T06:26:52;20.70;97.70
3466;DHT22;1747;48.884;9.160;2023-07-20T06:29:19;20.80;97.30
3466;DHT22;1747;48.884;9.160;2023-07-20T06:31:46;20.80;97.20
3466;DHT22;1747;48.884;9.160;2023-07-20T06:34:13;20.90;96.90
3466;DHT22;1747;48.884;9.160;2023-07-20T06:36:39;21.00;97.10
3466;DHT22;1747;48.884;9.160;2023-07-20T06:39:06;21.10;96.80
3466;DHT22;1747;48.884;9.160;2023-07-20T06:41:34;21.20;96.90
3466;DHT22;1747;48.884;9.160;2023-07-20T06:44:02;21.10;97.00
3466;DHT22;1747;48.884;9.160;2023-07-20T06:46:28;21.20;96.60
3466;DHT22;1747;48.884;9.160;2023-07-20T06:48:55;21.20;97.00
3466;DHT22;1747;48.884;9.160;2023-07-20T06:51:22;21.30;97.20
3466;DHT22;1747;48.884;9.160;2023-07-20T06:53:49;21.40;97.20
3466;DHT22;1747;48.884;9.160;2023-07-20T06:56:16;21.50;96.90
3466;DHT22;1747;48.884;9.160;2023-07-20T06:58:44;21.60;96.80
3466;DHT22;1747;48.884;9.160;2023-07-20T07:01:11;21.60;97.10
3466;DHT22;1747;48.884;9.160;2023-07-20T07:03:37;21.70;96.60
3466;DHT22;1747;48.884;9.160;2023-07-20T07:06:04;21.80;96.50
3466;DHT22;1747;48.884;9.160;2023-07-20T07:08:31;21.80;96.80
3466;DHT22;1747;48.884;9.160;2023-07-20T07:10:58;21.80;96.60
3466;DHT22;1747;48.884;9.160;2023-07-20T07:13:25;21.90;96.10
3466;DHT22;1747;48.884;9.160;2023-07-20T07:15:53;22.00;96.50
3466;DHT22;1747;48.884;9.160;2023-07-20T07:18:20;22.00;95.80
3466;DHT22;1747;48.884;9.160;2023-07-20T07:20:53;22.00;95.80
3466;DHT22;1747;48.884;9.160;2023-07-20T07:23:20;22.10;95.90
3466;DHT22;1747;48.884;9.160;2023-07-20T07:25:47;22.00;95.90
3466;DHT22;1747;48.884;9.160;2023-07-20T07:28:14;22.10;95.80
3466;DHT22;1747;48.884;9.160;2023-07-20T07:30:41;22.20;95.50
3466;DHT22;1747;48.884;9.160;2023-07-20T07:33:09;22.30;95.60
3466;DHT22;1747;48.884;9.160;2023-07-20T07:35:36;22.40;95.50
3466;DHT22;1747;48.884;9.160;2023-07-20T07:38:03;22.60;95.40
3466;DHT22;1747;48.884;9.160;2023-07-20T07:40:30;22.70;95.20
3466;DHT22;1747;48.884;9.160;2023-07-20T07:42:57;22.90;94.70
3466;DHT22;1747;48.884;9.160;2023-07-20T07:45:24;23.00;94.60
3466;DHT22;1747;48.884;9.160;2023-07-20T07:47:51;23.10;94.60
3466;DHT22;1747;48.884;9.160;2023-07-20T07:50:19;23.10;94.00
3466;DHT22;1747;48.884;9.160;2023-07-20T07:52:46;23.10;94.50
3466;DHT22;1747;48.884;9.160;2023-07-20T07:55:13;23.10;94.40
3466;DHT22;1747;48.884;9.160;2023-07-20T07:57:42;23.30;94.20
3466;DHT22;1747;48.884;9.160;2023-07-20T08:00:09;23.30;93.30
3466;DHT22;1747;48.884;9.160;2023-07-20T08:02:40;23.20;93.60
3466;DHT22;1747;48.884;9.160;2023-07-20T08:05:07;23.10;93.90
3466;DHT22;1747;48.884;9.160;2023-07-20T08:07:35;23.10;94.00
3466;DHT22;1747;48.884;9.160;2023-07-20T08:10:02;23.20;93.70
3466;DHT22;1747;48.884;9.160;2023-07-20T08:12:29;23.30;93.20
3466;DHT22;1747;48.884;9.160;2023-07-20T08:14:56;23.40;93.60
3466;DHT22;1747;48.884;9.160;2023-07-20T08:17:23;23.70;92.70
3466;DHT22;1747;48.884;9.160;2023-07-20T08:19:50;23.70;92.40
3466;DHT22;1747;48.884;9.160;2023-07-20T08:22:17;23.80;92.40
3466;DHT22;1747;48.884;9.160;2023-07-20T08:24:45;23.80;92.10
3466;DHT22;1747;48.884;9.160;2023-07-20T08:27:12;23.90;92.30
3466;DHT22;1747;48.884;9.160;2023-07-20T08:29:39;24.10;91.90
3466;DHT22;1747;48.884;9.160;2023-07-20T08:32:06;24.10;91.50
3466;DHT22;1747;48.884;9.160;2023-07-20T08:34:33;24.00;91.90
3466;DHT22;1747;48.884;9.160;2023-07-20T08:37:00;23.90;90.70
3466;DHT22;1747;48.884;9.160;2023-07-20T08:39:27;23.80;90.60
3466;DHT22;1747;48.884;9.160;2023-07-20T08:41:56;23.60;90.60
3466;DHT22;1747;48.884;9.160;2023-07-20T08:44:25;23.80;90.50
3466;DHT22;1747;48.884;9.160;2023-07-20T08:46:53;23.80;90.60
3466;DHT22;1747;48.884;9.160;2023-07-20T08:49:20;24.00;90.50
3466;DHT22;1747;48.884;9.160;2023-07-20T08:51:48;24.10;90.90
3466;DHT22;1747;48.884;9.160;2023-07-20T08:54:16;24.20;90.90
3466;DHT22;1747;48.884;9.160;2023-07-20T08:56:44;24.30;90.70
3466;DHT22;1747;48.884;9.160;2023-07-20T08:59:16;24.20;90.50
3466;DHT22;1747;48.884;9.160;2023-07-20T09:01:44;24.10;90.60
3466;DHT22;1747;48.884;9.160;2023-07-20T09:04:11;24.30;90.40
3466;DHT22;1747;48.884;9.160;2023-07-20T09:06:39;24.30;89.20
3466;DHT22;1747;48.884;9.160;2023-07-20T09:09:06;24.40;87.50
3466;DHT22;1747;48.884;9.160;2023-07-20T09:11:33;24.40;87.30
3466;DHT22;1747;48.884;9.160;2023-07-20T09:14:04;24.30;88.00
3466;DHT22;1747;48.884;9.160;2023-07-20T09:16:33;24.40;90.00
3466;DHT22;1747;48.884;9.160;2023-07-20T09:19:14;24.60;89.80
3466;DHT22;1747;48.884;9.160;2023-07-20T09:21:43;24.70;88.80
3466;DHT22;1747;48.884;9.160;2023-07-20T09:24:11;24.80;87.60
3466;DHT22;1747;48.884;9.160;2023-07-20T09:26:41;24.80;87.30
3466;DHT22;1747;48.884;9.160;2023-07-20T09:29:08;24.90;87.20
3466;DHT22;1747;48.884;9.160;2023-07-20T09:31:37;24.90;86.20
3466;DHT22;1747;48.884;9.160;2023-07-20T09:34:04;24.90;85.70
3466;DHT22;1747;48.884;9.160;2023-07-20T09:36:33;24.90;84.70
3466;DHT22;1747;48.884;9.160;2023-07-20T09:39:02;24.90;83.40
3466;DHT22;1747;48.884;9.160;2023-07-20T09:41:30;24.90;83.50
3466;DHT22;1747;48.884;9.160;2023-07-20T09:44:07;25.00;82.90
3466;DHT22;1747;48.884;9.160;2023-07-20T09:46:45;25.00;80.90
3466;DHT22;1747;48.884;9.160;2023-07-20T09:49:13;25.00;81.00
3466;DHT22;1747;48.884;9.160;2023-07-20T09:51:40;25.10;82.00
3466;DHT22;1747;48.884;9.160;2023-07-20T09:54:08;25.10;80.80
3466;DHT22;1747;48.884;9.160;2023-07-20T09:56:35;25.10;79.40
3466;DHT22;1747;48.884;9.160;2023-07-20T09:59:03;25.10;80.00
3466;DHT22;1747;48.884;9.160;2023-07-20T10:01:34;25.10;77.50
3466;DHT22;1747;48.884;9.160;2023-07-20T10:04:04;25.10;75.40
3466;DHT22;1747;48.884;9.160;2023-07-20T10:06:34;25.20;75.90
3466;DHT22;1747;48.884;9.160;2023-07-20T10:09:03;25.10;75.30
3466;DHT22;1747;48.884;9.160;2023-07-20T10:11:33;25.10;75.80
3466;DHT22;1747;48.884;9.160;2023-07-20T10:14:04;25.20;77.20
3466;DHT22;1747;48.884;9.160;2023-07-20T10:16:35;25.20;78.50
3466;DHT22;1747;48.884;9.160;2023-07-20T10:19:07;25.20;79.70
3466;DHT22;1747;48.884;9.160;2023-07-20T10:21:40;25.20;77.00
3466;DHT22;1747;48.884;9.160;2023-07-20T10:24:11;25.40;75.00
3466;DHT22;1747;48.884;9.160;2023-07-20T10:26:39;25.50;74.80
3466;DHT22;1747;48.884;9.160;2023-07-20T10:29:07;25.50;73.30
3466;DHT22;1747;48.884;9.160;2023-07-20T10:31:35;25.50;74.00
3466;DHT22;1747;48.884;9.160;2023-07-20T10:34:05;25.60;76.10
3466;DHT22;1747;48.884;9.160;2023-07-20T10:36:32;25.60;76.80
3466;DHT22;1747;48.884;9.160;2023-07-20T10:38:58;25.60;77.00
3466;DHT22;1747;48.884;9.160;2023-07-20T10:41:28;25.60;73.00
3466;DHT22;1747;48.884;9.160;2023-07-20T10:44:01;25.50;70.90
3466;DHT22;1747;48.884;9.160;2023-07-20T10:46:41;25.70;72.30
3466;DHT22;1747;48.884;9.160;2023-07-20T10:49:10;25.70;73.20
3466;DHT22;1747;48.884;9.160;2023-07-20T10:51:42;25.80;73.10
3466;DHT22;1747;48.884;9.160;2023-07-20T10:54:12;25.90;73.60
3466;DHT22;1747;48.884;9.160;2023-07-20T10:56:58;25.90;70.40
3466;DHT22;1747;48.884;9.160;2023-07-20T10:59:47;25.90;71.10
3466;DHT22;1747;48.884;9.160;2023-07-20T11:02:18;26.00;71.70
3466;DHT22;1747;48.884;9.160;2023-07-20T11:04:47;26.10;69.30
3466;DHT22;1747;48.884;9.160;2023-07-20T11:07:17;26.10;68.60
3466;DHT22;1747;48.884;9.160;2023-07-20T11:09:44;26.10;70.80
3466;DHT22;1747;48.884;9.160;2023-07-20T11:12:14;26.10;73.40
3466;DHT22;1747;48.884;9.160;2023-07-20T11:14:42;26.20;71.70
3466;DHT22;1747;48.884;9.160;2023-07-20T11:17:13;26.20;69.10
3466;DHT22;1747;48.884;9.160;2023-07-20T11:19:40;26.20;68.20
3466;DHT22;1747;48.884;9.160;2023-07-20T11:22:09;26.30;68.00
3466;DHT22;1747;48.884;9.160;2023-07-20T11:24:38;26.40;68.20
3466;DHT22;1747;48.884;9.160;2023-07-20T11:27:06;26.60;69.00
3466;DHT22;1747;48.884;9.160;2023-07-20T11:29:33;26.70;66.80
3466;DHT22;1747;48.884;9.160;2023-07-20T11:32:02;26.70;65.70
3466;DHT22;1747;48.884;9.160;2023-07-20T11:34:31;26.60;64.70
3466;DHT22;1747;48.884;9.160;2023-07-20T11:36:59;26.50;65.00
3466;DHT22;1747;48.884;9.160;2023-07-20T11:39:27;26.50;65.20
3466;DHT22;1747;48.884;9.160;2023-07-20T11:41:56;26.60;66.60
3466;DHT22;1747;48.884;9.160;2023-07-20T11:44:23;26.70;65.50
3466;DHT22;1747;48.884;9.160;2023-07-20T11:47:00;26.80;65.80
3466;DHT22;1747;48.884;9.160;2023-07-20T11:49:28;26.90;65.40
3466;DHT22;1747;48.884;9.160;2023-07-20T11:51:56;27.00;64.90
3466;DHT22;1747;48.884;9.160;2023-07-20T11:54:24;27.20;65.30
3466;DHT22;1747;48.884;9.160;2023-07-20T11:56:55;27.40;66.50
3466;DHT22;1747;48.884;9.160;2023-07-20T11:59:22;27.70;65.30
3466;DHT22;1747;48.884;9.160;2023-07-20T12:01:49;28.00;65.60
3466;DHT22;1747;48.884;9.160;2023-07-20T12:04:16;28.20;64.20
3466;DHT22;1747;48.884;9.160;2023-07-20T12:06:45;28.70;64.30
3466;DHT22;1747;48.884;9.160;2023-07-20T12:09:14;29.30;63.20
3466;DHT22;1747;48.884;9.160;2023-07-20T12:11:43;29.90;62.80
3466;DHT22;1747;48.884;9.160;2023-07-20T12:14:12;30.20;61.50
3466;DHT22;1747;48.884;9.160;2023-07-20T12:16:39;30.50;59.40
3466;DHT22;1747;48.884;9.160;2023-07-20T12:19:07;30.80;57.90
3466;DHT22;1747;48.884;9.160;2023-07-20T12:21:35;31.00;57.50
3466;DHT22;1747;48.884;9.160;2023-07-20T12:24:03;31.30;58.20
3466;DHT22;1747;48.884;9.160;2023-07-20T12:26:32;31.50;55.20
3466;DHT22;1747;48.884;9.160;2023-07-20T12:28:59;31.80;54.30
3466;DHT22;1747;48.884;9.160;2023-07-20T12:31:28;32.10;53.90
3466;DHT22;1747;48.884;9.160;2023-07-20T12:33:56;32.60;52.50
3466;DHT22;1747;48.884;9.160;2023-07-20T12:36:24;32.90;52.70
3466;DHT22;1747;48.884;9.160;2023-07-20T12:38:51;33.10;52.50
3466;DHT22;1747;48.884;9.160;2023-07-20T12:41:19;33.00;50.40
3466;DHT22;1747;48.884;9.160;2023-07-20T12:43:46;33.30;51.10
3466;DHT22;1747;48.884;9.160;2023-07-20T12:46:19;33.30;49.30
3466;DHT22;1747;48.884;9.160;2023-07-20T12:48:49;33.60;51.30
3466;DHT22;1747;48.884;9.160;2023-07-20T12:51:16;33.80;51.50
3466;DHT22;1747;48.884;9.160;2023-07-20T12:53:44;34.30;50.10
3466;DHT22;1747;48.884;9.160;2023-07-20T12:56:11;34.30;50.50
3466;DHT22;1747;48.884;9.160;2023-07-20T12:58:38;34.30;48.80
3466;DHT22;1747;48.884;9.160;2023-07-20T13:01:06;34.70;50.00
3466;DHT22;1747;48.884;9.160;2023-07-20T13:03:33;35.00;48.40
3466;DHT22;1747;48.884;9.160;2023-07-20T13:06:01;35.20;48.20
3466;DHT22;1747;48.884;9.160;2023-07-20T13:08:28;35.20;47.50
3466;DHT22;1747;48.884;9.160;2023-07-20T13:10:56;35.20;46.60
3466;DHT22;1747;48.884;9.160;2023-07-20T13:13:23;35.30;46.30
3466;DHT22;1747;48.884;9.160;2023-07-20T13:15:50;35.50;45.10
3466;DHT22;1747;48.884;9.160;2023-07-20T13:18:17;35.60;44.50
3466;DHT22;1747;48.884;9.160;2023-07-20T13:20:45;35.70;45.50
3466;DHT22;1747;48.884;9.160;2023-07-20T13:23:13;35.60;44.30
3466;DHT22;1747;48.884;9.160;2023-07-20T13:25:40;35.70;45.50
3466;DHT22;1747;48.884;9.160;2023-07-20T13:28:07;36.00;46.50
3466;DHT22;1747;48.884;9.160;2023-07-20T13:30:35;36.40;45.30
3466;DHT22;1747;48.884;9.160;2023-07-20T13:33:02;36.40;44.70
3466;DHT22;1747;48.884;9.160;2023-07-20T13:35:29;36.70;45.30
3466;DHT22;1747;48.884;9.160;2023-07-20T13:37:56;36.70;43.20
3466;DHT22;1747;48.884;9.160;2023-07-20T13:40:24;36.90;44.10
3466;DHT22;1747;48.884;9.160;2023-07-20T13:42:51;37.10;42.80
3466;DHT22;1747;48.884;9.160;2023-07-20T13:45:18;37.00;42.70
3466;DHT22;1747;48.884;9.160;2023-07-20T13:47:47;37.10;43.80
3466;DHT22;1747;48.884;9.160;2023-07-20T13:50:14;37.20;42.60
3466;DHT22;1747;48.884;9.160;2023-07-20T13:52:41;37.50;43.40
3466;DHT22;1747;48.884;9.160;2023-07-20T13:55:08;37.60;42.10
3466;DHT22;1747;48.884;9.160;2023-07-20T13:57:37;37.20;42.40
3466;DHT22;1747;48.884;9.160;2023-07-20T14:00:05;37.30;42.10
3466;DHT22;1747;48.884;9.160;2023-07-20T14:02:37;36.90;42.30
3466;DHT22;1747;48.884;9.160;2023-07-20T14:05:07;37.00;42.60
3466;DHT22;1747;48.884;9.160;2023-07-20T14:07:35;37.10;41.50
3466;DHT22;1747;48.884;9.160;2023-07-20T14:10:03;37.40;41.30
3466;DHT22;1747;48.884;9.160;2023-07-20T14:12:30;37.80;41.50
3466;DHT22;1747;48.884;9.160;2023-07-20T14:14:59;38.30;41.80
3466;DHT22;1747;48.884;9.160;2023-07-20T14:17:26;38.50;40.00
3466;DHT22;1747;48.884;9.160;2023-07-20T14:19:54;38.50;39.40
3466;DHT22;1747;48.884;9.160;2023-07-20T14:22:21;38.30;39.70
3466;DHT22;1747;48.884;9.160;2023-07-20T14:24:48;38.30;39.20
3466;DHT22;1747;48.884;9.160;2023-07-20T14:27:16;38.30;39.60
3466;DHT22;1747;48.884;9.160;2023-07-20T14:29:43;38.40;41.30
3466;DHT22;1747;48.884;9.160;2023-07-20T14:32:11;38.80;41.60
3466;DHT22;1747;48.884;9.160;2023-07-20T14:34:38;38.90;40.20
3466;DHT22;1747;48.884;9.160;2023-07-20T14:37:06;39.10;40.20
3466;DHT22;1747;48.884;9.160;2023-07-20T14:39:33;39.30;39.50
3466;DHT22;1747;48.884;9.160;2023-07-20T14:42:02;39.20;38.40
3466;DHT22;1747;48.884;9.160;2023-07-20T14:44:30;39.10;40.20
3466;DHT22;1747;48.884;9.160;2023-07-20T14:46:56;39.00;37.80
3466;DHT22;1747;48.884;9.160;2023-07-20T14:49:25;38.60;38.40
3466;DHT22;1747;48.884;9.160;2023-07-20T14:51:52;38.40;38.90
3466;DHT22;1747;48.884;9.160;2023-07-20T14:54:19;38.30;38.40
3466;DHT22;1747;48.884;9.160;2023-07-20T14:56:50;38.10;38.50
3466;DHT22;1747;48.884;9.160;2023-07-20T14:59:18;37.90;38.80
3466;DHT22;1747;48.884;9.160;2023-07-20T15:01:45;37.70;39.50
3466;DHT22;1747;48.884;9.160;2023-07-20T15:04:13;37.80;39.30
3466;DHT22;1747;48.884;9.160;2023-07-20T15:06:41;37.80;39.20
3466;DHT22;1747;48.884;9.160;2023-07-20T15:09:09;37.70;38.40
3466;DHT22;1747;48.884;9.160;2023-07-20T15:11:36;37.70;39.50
3466;DHT22;1747;48.884;9.160;2023-07-20T15:14:04;37.60;38.40
3466;DHT22;1747;48.884;9.160;2023-07-20T15:16:31;37.50;38.20
3466;DHT22;1747;48.884;9.160;2023-07-20T15:18:58;37.50;38.70
3466;DHT22;1747;48.884;9.160;2023-07-20T15:21:28;37.10;40.10
3466;DHT22;1747;48.884;9.160;2023-07-20T15:23:57;37.00;40.40
3466;DHT22;1747;48.884;9.160;2023-07-20T15:26:24;36.40;39.10
3466;DHT22;1747;48.884;9.160;2023-07-20T15:28:51;36.10;39.00
3466;DHT22;1747;48.884;9.160;2023-07-20T15:31:19;36.10;40.10
3466;DHT22;1747;48.884;9.160;2023-07-20T15:33:46;36.20;40.30
3466;DHT22;1747;48.884;9.160;2023-07-20T15:36:13;36.20;39.80
3466;DHT22;1747;48.884;9.160;2023-07-20T15:38:40;36.10;40.00
3466;DHT22;1747;48.884;9.160;2023-07-20T15:41:09;35.90;41.80
3466;DHT22;1747;48.884;9.160;2023-07-20T15:43:38;35.70;40.50
3466;DHT22;1747;48.884;9.160;2023-07-20T15:49:09;35.50;42.50
3466;DHT22;1747;48.884;9.160;2023-07-20T15:51:38;35.40;40.40
3466;DHT22;1747;48.884;9.160;2023-07-20T15:54:07;35.00;40.40
3466;DHT22;1747;48.884;9.160;2023-07-20T15:56:39;34.60;40.80
3466;DHT22;1747;48.884;9.160;2023-07-20T15:59:08;34.20;40.80
3466;DHT22;1747;48.884;9.160;2023-07-20T16:01:37;33.80;41.10
3466;DHT22;1747;48.884;9.160;2023-07-20T16:04:04;33.40;41.30
3466;DHT22;1747;48.884;9.160;2023-07-20T16:06:31;33.10;41.50
3466;DHT22;1747;48.884;9.160;2023-07-20T16:09:01;32.80;42.40
3466;DHT22;1747;48.884;9.160;2023-07-20T16:11:28;32.70;44.40
3466;DHT22;1747;48.884;9.160;2023-07-20T16:13:56;32.60;43.90
3466;DHT22;1747;48.884;9.160;2023-07-20T16:16:23;32.60;44.60